Home

Weather

KSLC Current Conditions

KSLC 240954Z 00000KT 9SM -RA SCT016 BKN025 OVC032 08/07 A2989 RMK AO2 RAE31B48 SLP103 P0001 T00780067

KSLC Aviation Forecast

TAF AMD KSLC 241007Z 2410/2512 14006KT P6SM VCSH SCT025 OVC040 TEMPO 2410/2413 -SHRA FEW010 BKN025 FM241500 30007KT P6SM -RA SCT015 BKN030 FM250100 15005KT P6SM VCSH SCT020 BKN040


46° F
Overcast
Overcast

Rain
Sunday
Rain
High 48°/Low 40°
90%
Partly Cloudy
Monday
Partly Cloudy
High 58°/Low 38°
0%
Clear
Tuesday
Clear
High 63°/Low 41°
0%
Clear
Wednesday
Clear
High 68°/Low 47°
0%